sensor_id;sensor_type;location;lat;lon;timestamp;temperature;humidity
10245;DHT22;5167;52.164;10.530;2022-12-18T00:01:26;-5.40;23.80
10245;DHT22;5167;52.164;10.530;2022-12-18T00:03:52;-5.40;23.70
10245;DHT22;5167;52.164;10.530;2022-12-18T00:06:19;-5.40;24.30
10245;DHT22;5167;52.164;10.530;2022-12-18T00:08:45;-5.40;24.10
10245;DHT22;5167;52.164;10.530;2022-12-18T00:11:13;-5.50;24.10
10245;DHT22;5167;52.164;10.530;2022-12-18T00:13:39;-5.50;24.30
10245;DHT22;5167;52.164;10.530;2022-12-18T00:16:07;-5.50;25.10
10245;DHT22;5167;52.164;10.530;2022-12-18T00:18:33;-5.50;25.50
10245;DHT22;5167;52.164;10.530;2022-12-18T00:21:00;-5.50;25.20
10245;DHT22;5167;52.164;10.530;2022-12-18T00:23:27;-5.40;25.20
10245;DHT22;5167;52.164;10.530;2022-12-18T00:25:52;-5.50;24.70
10245;DHT22;5167;52.164;10.530;2022-12-18T00:28:18;-5.50;25.60
10245;DHT22;5167;52.164;10.530;2022-12-18T00:30:43;-5.50;25.10
10245;DHT22;5167;52.164;10.530;2022-12-18T00:33:09;-5.50;25.40
10245;DHT22;5167;52.164;10.530;2022-12-18T00:35:34;-5.50;25.60
10245;DHT22;5167;52.164;10.530;2022-12-18T00:38:00;-5.50;25.20
10245;DHT22;5167;52.164;10.530;2022-12-18T00:40:25;-5.40;25.10
10245;DHT22;5167;52.164;10.530;2022-12-18T00:42:51;-5.50;24.70
10245;DHT22;5167;52.164;10.530;2022-12-18T00:45:27;-5.60;24.70
10245;DHT22;5167;52.164;10.530;2022-12-18T00:47:53;-5.60;25.10
10245;DHT22;5167;52.164;10.530;2022-12-18T00:50:19;-5.60;25.00
10245;DHT22;5167;52.164;10.530;2022-12-18T00:52:45;-5.60;24.90
10245;DHT22;5167;52.164;10.530;2022-12-18T00:55:12;-5.60;25.00
10245;DHT22;5167;52.164;10.530;2022-12-18T00:57:37;-5.70;25.20
10245;DHT22;5167;52.164;10.530;2022-12-18T01:00:05;-5.60;25.00
10245;DHT22;5167;52.164;10.530;2022-12-18T01:02:31;-5.70;25.20
10245;DHT22;5167;52.164;10.530;2022-12-18T01:04:56;-5.70;25.60
10245;DHT22;5167;52.164;10.530;2022-12-18T01:07:22;-5.70;25.50
10245;DHT22;5167;52.164;10.530;2022-12-18T01:09:48;-5.70;25.90
10245;DHT22;5167;52.164;10.530;2022-12-18T01:12:13;-5.70;25.10
10245;DHT22;5167;52.164;10.530;2022-12-18T01:14:39;-5.70;24.30
10245;DHT22;5167;52.164;10.530;2022-12-18T01:17:04;-5.70;24.30
10245;DHT22;5167;52.164;10.530;2022-12-18T01:19:30;-5.60;23.90
10245;DHT22;5167;52.164;10.530;2022-12-18T01:21:55;-5.60;24.10
10245;DHT22;5167;52.164;10.530;2022-12-18T01:24:21;-5.60;24.10
10245;DHT22;5167;52.164;10.530;2022-12-18T01:26:47;-5.60;23.90
10245;DHT22;5167;52.164;10.530;2022-12-18T01:29:12;-5.50;24.00
10245;DHT22;5167;52.164;10.530;2022-12-18T01:31:38;-5.70;23.60
10245;DHT22;5167;52.164;10.530;2022-12-18T01:34:05;-5.40;24.30
10245;DHT22;5167;52.164;10.530;2022-12-18T01:36:33;-5.60;24.30
10245;DHT22;5167;52.164;10.530;2022-12-18T01:39:00;-5.70;25.70
10245;DHT22;5167;52.164;10.530;2022-12-18T01:41:28;-5.70;25.60
10245;DHT22;5167;52.164;10.530;2022-12-18T01:49:54;-5.70;25.90
10245;DHT22;5167;52.164;10.530;2022-12-18T01:52:21;-5.70;25.90
10245;DHT22;5167;52.164;10.530;2022-12-18T01:54:49;-5.70;25.90
10245;DHT22;5167;52.164;10.530;2022-12-18T01:57:15;-5.70;25.60
10245;DHT22;5167;52.164;10.530;2022-12-18T01:59:43;-5.80;25.50
10245;DHT22;5167;52.164;10.530;2022-12-18T02:02:11;-5.70;25.20
10245;DHT22;5167;52.164;10.530;2022-12-18T02:04:36;-5.70;25.00
10245;DHT22;5167;52.164;10.530;2022-12-18T02:15:31;-6.00;24.80
10245;DHT22;5167;52.164;10.530;2022-12-18T02:18:23;-6.00;24.80
10245;DHT22;5167;52.164;10.530;2022-12-18T02:21:00;-6.00;25.20
10245;DHT22;5167;52.164;10.530;2022-12-18T02:23:45;-6.10;25.00
10245;DHT22;5167;52.164;10.530;2022-12-18T02:29:16;-6.20;25.00
10245;DHT22;5167;52.164;10.530;2022-12-18T02:31:46;-6.20;25.60
10245;DHT22;5167;52.164;10.530;2022-12-18T02:34:16;-6.30;25.60
10245;DHT22;5167;52.164;10.530;2022-12-18T02:36:44;-6.20;25.90
10245;DHT22;5167;52.164;10.530;2022-12-18T02:39:11;-6.20;26.40
10245;DHT22;5167;52.164;10.530;2022-12-18T02:41:38;-6.40;26.70
10245;DHT22;5167;52.164;10.530;2022-12-18T02:44:08;-6.30;27.30
10245;DHT22;5167;52.164;10.530;2022-12-18T02:46:37;-6.20;26.80
10245;DHT22;5167;52.164;10.530;2022-12-18T02:57:54;-6.40;27.10
10245;DHT22;5167;52.164;10.530;2022-12-18T03:00:48;-6.50;27.30
10245;DHT22;5167;52.164;10.530;2022-12-18T03:03:30;-6.50;26.90
10245;DHT22;5167;52.164;10.530;2022-12-18T03:06:15;-6.40;26.80
10245;DHT22;5167;52.164;10.530;2022-12-18T03:08:47;-6.40;26.50
10245;DHT22;5167;52.164;10.530;2022-12-18T03:11:15;-6.40;26.20
10245;DHT22;5167;52.164;10.530;2022-12-18T03:14:01;-6.50;26.40
10245;DHT22;5167;52.164;10.530;2022-12-18T03:16:30;-6.40;26.70
10245;DHT22;5167;52.164;10.530;2022-12-18T03:19:01;-6.40;26.60
10245;DHT22;5167;52.164;10.530;2022-12-18T03:21:35;-6.40;26.60
10245;DHT22;5167;52.164;10.530;2022-12-18T03:24:06;-6.40;26.10
10245;DHT22;5167;52.164;10.530;2022-12-18T03:26:34;-6.40;26.20
10245;DHT22;5167;52.164;10.530;2022-12-18T03:29:05;-6.40;25.40
10245;DHT22;5167;52.164;10.530;2022-12-18T03:31:32;-6.40;25.20
10245;DHT22;5167;52.164;10.530;2022-12-18T03:34:01;-6.50;24.70
10245;DHT22;5167;52.164;10.530;2022-12-18T03:36:27;-6.50;25.60
10245;DHT22;5167;52.164;10.530;2022-12-18T03:38:53;-6.60;25.50
10245;DHT22;5167;52.164;10.530;2022-12-18T03:41:51;-6.60;24.90
10245;DHT22;5167;52.164;10.530;2022-12-18T03:44:26;-6.50;25.30
10245;DHT22;5167;52.164;10.530;2022-12-18T03:52:26;-6.60;24.70
10245;DHT22;5167;52.164;10.530;2022-12-18T03:54:55;-6.60;23.90
10245;DHT22;5167;52.164;10.530;2022-12-18T03:57:25;-6.40;24.00
10245;DHT22;5167;52.164;10.530;2022-12-18T03:59:56;-6.60;23.50
10245;DHT22;5167;52.164;10.530;2022-12-18T04:02:23;-6.60;23.80
10245;DHT22;5167;52.164;10.530;2022-12-18T04:04:52;-6.70;23.80
10245;DHT22;5167;52.164;10.530;2022-12-18T04:07:19;-6.70;24.30
10245;DHT22;5167;52.164;10.530;2022-12-18T04:09:46;-6.80;24.30
10245;DHT22;5167;52.164;10.530;2022-12-18T04:12:13;-6.70;24.50
10245;DHT22;5167;52.164;10.530;2022-12-18T04:14:39;-6.70;24.70
10245;DHT22;5167;52.164;10.530;2022-12-18T04:17:04;-6.70;25.80
10245;DHT22;5167;52.164;10.530;2022-12-18T04:19:30;-6.70;26.00
10245;DHT22;5167;52.164;10.530;2022-12-18T04:21:55;-6.70;26.00
10245;DHT22;5167;52.164;10.530;2022-12-18T04:24:21;-6.80;26.10
10245;DHT22;5167;52.164;10.530;2022-12-18T04:26:46;-7.00;25.70
10245;DHT22;5167;52.164;10.530;2022-12-18T04:29:12;-6.80;26.10
10245;DHT22;5167;52.164;10.530;2022-12-18T04:31:37;-6.70;26.10
10245;DHT22;5167;52.164;10.530;2022-12-18T04:34:03;-6.70;25.80
10245;DHT22;5167;52.164;10.530;2022-12-18T04:36:29;-6.70;26.10
10245;DHT22;5167;52.164;10.530;2022-12-18T04:38:55;-6.70;26.10
10245;DHT22;5167;52.164;10.530;2022-12-18T04:41:20;-6.70;26.30
10245;DHT22;5167;52.164;10.530;2022-12-18T04:43:46;-6.80;26.20
10245;DHT22;5167;52.164;10.530;2022-12-18T04:46:12;-6.80;25.60
10245;DHT22;5167;52.164;10.530;2022-12-18T04:48:37;-6.80;25.70
10245;DHT22;5167;52.164;10.530;2022-12-18T04:51:04;-6.80;26.00
10245;DHT22;5167;52.164;10.530;2022-12-18T04:53:29;-6.80;25.40
10245;DHT22;5167;52.164;10.530;2022-12-18T04:56:12;-6.50;26.20
10245;DHT22;5167;52.164;10.530;2022-12-18T04:58:39;-6.80;25.80
10245;DHT22;5167;52.164;10.530;2022-12-18T05:01:06;-6.70;25.60
10245;DHT22;5167;52.164;10.530;2022-12-18T05:03:33;-6.60;26.10
10245;DHT22;5167;52.164;10.530;2022-12-18T05:05:59;-6.70;25.60
10245;DHT22;5167;52.164;10.530;2022-12-18T05:08:25;-6.70;25.00
10245;DHT22;5167;52.164;10.530;2022-12-18T05:10:58;-6.80;25.40
10245;DHT22;5167;52.164;10.530;2022-12-18T05:13:24;-6.80;25.20
10245;DHT22;5167;52.164;10.530;2022-12-18T05:15:52;-6.80;25.60
10245;DHT22;5167;52.164;10.530;2022-12-18T05:18:18;-6.90;25.20
10245;DHT22;5167;52.164;10.530;2022-12-18T05:20:43;-6.80;25.50
10245;DHT22;5167;52.164;10.530;2022-12-18T05:23:09;-6.80;25.30
10245;DHT22;5167;52.164;10.530;2022-12-18T05:25:35;-6.80;25.40
10245;DHT22;5167;52.164;10.530;2022-12-18T05:28:00;-6.80;25.00
10245;DHT22;5167;52.164;10.530;2022-12-18T05:30:26;-6.90;25.10
10245;DHT22;5167;52.164;10.530;2022-12-18T05:32:51;-6.90;25.30
10245;DHT22;5167;52.164;10.530;2022-12-18T05:35:17;-6.90;25.40
10245;DHT22;5167;52.164;10.530;2022-12-18T05:37:42;-6.70;25.60
10245;DHT22;5167;52.164;10.530;2022-12-18T05:40:08;-6.90;25.40
10245;DHT22;5167;52.164;10.530;2022-12-18T05:42:34;-7.00;24.90
10245;DHT22;5167;52.164;10.530;2022-12-18T05:44:59;-7.00;25.50
10245;DHT22;5167;52.164;10.530;2022-12-18T05:47:26;-7.00;25.60
10245;DHT22;5167;52.164;10.530;2022-12-18T05:49:52;-7.10;25.10
10245;DHT22;5167;52.164;10.530;2022-12-18T05:52:17;-7.00;24.90
10245;DHT22;5167;52.164;10.530;2022-12-18T05:54:43;-7.00;25.30
10245;DHT22;5167;52.164;10.530;2022-12-18T05:57:08;-7.00;25.40
10245;DHT22;5167;52.164;10.530;2022-12-18T05:59:34;-7.00;25.00
10245;DHT22;5167;52.164;10.530;2022-12-18T06:02:00;-6.90;24.30
10245;DHT22;5167;52.164;10.530;2022-12-18T06:04:30;-7.00;24.30
10245;DHT22;5167;52.164;10.530;2022-12-18T06:06:56;-7.00;24.00
10245;DHT22;5167;52.164;10.530;2022-12-18T06:09:22;-7.00;24.30
10245;DHT22;5167;52.164;10.530;2022-12-18T06:11:48;-7.00;24.60
10245;DHT22;5167;52.164;10.530;2022-12-18T06:14:13;-6.90;24.80
10245;DHT22;5167;52.164;10.530;2022-12-18T06:16:39;-6.90;25.00
10245;DHT22;5167;52.164;10.530;2022-12-18T06:19:05;-6.90;24.70
10245;DHT22;5167;52.164;10.530;2022-12-18T06:21:31;-6.90;24.50
10245;DHT22;5167;52.164;10.530;2022-12-18T06:23:57;-6.80;24.60
10245;DHT22;5167;52.164;10.530;2022-12-18T06:26:23;-6.90;23.70
10245;DHT22;5167;52.164;10.530;2022-12-18T06:28:49;-6.80;24.20
10245;DHT22;5167;52.164;10.530;2022-12-18T06:31:14;-6.90;24.30
10245;DHT22;5167;52.164;10.530;2022-12-18T06:33:40;-6.90;24.60
10245;DHT22;5167;52.164;10.530;2022-12-18T06:36:12;-7.00;24.20
10245;DHT22;5167;52.164;10.530;2022-12-18T06:38:41;-6.90;24.50
10245;DHT22;5167;52.164;10.530;2022-12-18T06:41:12;-6.80;24.00
10245;DHT22;5167;52.164;10.530;2022-12-18T06:43:38;-6.90;24.50
10245;DHT22;5167;52.164;10.530;2022-12-18T06:46:04;-6.90;23.90
10245;DHT22;5167;52.164;10.530;2022-12-18T06:48:30;-7.00;24.00
10245;DHT22;5167;52.164;10.530;2022-12-18T06:50:55;-6.90;24.10
10245;DHT22;5167;52.164;10.530;2022-12-18T06:53:21;-6.90;24.40
10245;DHT22;5167;52.164;10.530;2022-12-18T06:55:47;-6.90;24.40
10245;DHT22;5167;52.164;10.530;2022-12-18T06:58:13;-6.90;24.20
10245;DHT22;5167;52.164;10.530;2022-12-18T07:00:38;-6.90;23.80
10245;DHT22;5167;52.164;10.530;2022-12-18T07:03:04;-6.80;23.80
10245;DHT22;5167;52.164;10.530;2022-12-18T07:05:29;-6.80;24.20
10245;DHT22;5167;52.164;10.530;2022-12-18T07:07:55;-6.70;24.00
10245;DHT22;5167;52.164;10.530;2022-12-18T07:10:21;-6.70;23.00
10245;DHT22;5167;52.164;10.530;2022-12-18T07:12:46;-6.90;23.70
10245;DHT22;5167;52.164;10.530;2022-12-18T07:15:12;-6.90;23.40
10245;DHT22;5167;52.164;10.530;2022-12-18T07:17:37;-7.00;23.30
10245;DHT22;5167;52.164;10.530;2022-12-18T07:20:03;-7.00;23.80
10245;DHT22;5167;52.164;10.530;2022-12-18T07:22:29;-7.10;24.30
10245;DHT22;5167;52.164;10.530;2022-12-18T07:24:54;-7.00;24.10
10245;DHT22;5167;52.164;10.530;2022-12-18T07:27:20;-6.90;24.10
10245;DHT22;5167;52.164;10.530;2022-12-18T07:29:46;-7.00;24.20
10245;DHT22;5167;52.164;10.530;2022-12-18T07:32:12;-6.90;23.70
10245;DHT22;5167;52.164;10.530;2022-12-18T07:34:37;-7.00;24.10
10245;DHT22;5167;52.164;10.530;2022-12-18T07:37:03;-6.90;23.80
10245;DHT22;5167;52.164;10.530;2022-12-18T07:39:28;-6.90;23.70
10245;DHT22;5167;52.164;10.530;2022-12-18T07:41:54;-6.90;24.00
10245;DHT22;5167;52.164;10.530;2022-12-18T07:44:38;-6.90;24.20
10245;DHT22;5167;52.164;10.530;2022-12-18T07:47:04;-6.80;23.90
10245;DHT22;5167;52.164;10.530;2022-12-18T07:49:30;-6.80;23.70
10245;DHT22;5167;52.164;10.530;2022-12-18T07:51:56;-6.80;24.30
10245;DHT22;5167;52.164;10.530;2022-12-18T07:54:23;-6.70;24.10
10245;DHT22;5167;52.164;10.530;2022-12-18T07:56:49;-6.70;23.70
10245;DHT22;5167;52.164;10.530;2022-12-18T07:59:14;-6.70;23.90
10245;DHT22;5167;52.164;10.530;2022-12-18T08:01:40;-6.70;24.10
10245;DHT22;5167;52.164;10.530;2022-12-18T08:04:05;-6.60;24.30
10245;DHT22;5167;52.164;10.530;2022-12-18T08:06:31;-6.60;23.50
10245;DHT22;5167;52.164;10.530;2022-12-18T08:08:57;-6.60;23.30
10245;DHT22;5167;52.164;10.530;2022-12-18T08:11:24;-6.60;22.90
10245;DHT22;5167;52.164;10.530;2022-12-18T08:13:50;-6.70;23.70
10245;DHT22;5167;52.164;10.530;2022-12-18T08:16:17;-6.60;23.70
10245;DHT22;5167;52.164;10.530;2022-12-18T08:18:42;-6.40;23.80
10245;DHT22;5167;52.164;10.530;2022-12-18T08:21:13;-6.50;23.20
10245;DHT22;5167;52.164;10.530;2022-12-18T08:23:38;-6.50;23.70
10245;DHT22;5167;52.164;10.530;2022-12-18T08:26:05;-6.50;23.70
10245;DHT22;5167;52.164;10.530;2022-12-18T08:28:30;-6.50;23.80
10245;DHT22;5167;52.164;10.530;2022-12-18T08:30:56;-6.40;23.80
10245;DHT22;5167;52.164;10.530;2022-12-18T08:33:21;-6.40;23.30
10245;DHT22;5167;52.164;10.530;2022-12-18T08:35:47;-6.50;23.50
10245;DHT22;5167;52.164;10.530;2022-12-18T08:38:13;-6.50;23.00
10245;DHT22;5167;52.164;10.530;2022-12-18T08:40:38;-6.50;23.40
10245;DHT22;5167;52.164;10.530;2022-12-18T08:43:04;-6.40;23.70
10245;DHT22;5167;52.164;10.530;2022-12-18T08:45:48;-6.50;24.30
10245;DHT22;5167;52.164;10.530;2022-12-18T08:48:13;-6.40;24.10
10245;DHT22;5167;52.164;10.530;2022-12-18T08:50:40;-6.40;24.00
10245;DHT22;5167;52.164;10.530;2022-12-18T08:53:05;-6.30;24.50
10245;DHT22;5167;52.164;10.530;2022-12-18T08:55:31;-6.40;24.30
10245;DHT22;5167;52.164;10.530;2022-12-18T08:57:56;-6.30;24.60
10245;DHT22;5167;52.164;10.530;2022-12-18T09:00:22;-6.20;24.90
10245;DHT22;5167;52.164;10.530;2022-12-18T09:02:47;-6.20;24.70
10245;DHT22;5167;52.164;10.530;2022-12-18T09:05:13;-6.10;25.00
10245;DHT22;5167;52.164;10.530;2022-12-18T09:07:38;-6.10;24.60
10245;DHT22;5167;52.164;10.530;2022-12-18T09:10:04;-6.10;25.20
10245;DHT22;5167;52.164;10.530;2022-12-18T09:12:30;-6.00;25.50
10245;DHT22;5167;52.164;10.530;2022-12-18T09:14:56;-6.00;25.80
10245;DHT22;5167;52.164;10.530;2022-12-18T09:17:22;-5.90;26.30
10245;DHT22;5167;52.164;10.530;2022-12-18T09:19:48;-5.80;26.30
10245;DHT22;5167;52.164;10.530;2022-12-18T09:22:13;-5.80;27.20
10245;DHT22;5167;52.164;10.530;2022-12-18T09:24:39;-5.70;27.50
10245;DHT22;5167;52.164;10.530;2022-12-18T09:27:04;-5.60;27.30
10245;DHT22;5167;52.164;10.530;2022-12-18T09:29:30;-5.40;27.30
10245;DHT22;5167;52.164;10.530;2022-12-18T09:31:56;-5.30;27.00
10245;DHT22;5167;52.164;10.530;2022-12-18T09:34:21;-5.10;26.70
10245;DHT22;5167;52.164;10.530;2022-12-18T09:36:47;-5.00;26.80
10245;DHT22;5167;52.164;10.530;2022-12-18T09:39:13;-4.60;26.80
10245;DHT22;5167;52.164;10.530;2022-12-18T09:41:52;-4.50;26.20
10245;DHT22;5167;52.164;10.530;2022-12-18T09:44:29;-4.40;24.80
10245;DHT22;5167;52.164;10.530;2022-12-18T09:47:35;-4.30;24.80
10245;DHT22;5167;52.164;10.530;2022-12-18T09:50:27;-4.20;23.90
10245;DHT22;5167;52.164;10.530;2022-12-18T09:52:54;-4.00;24.40
10245;DHT22;5167;52.164;10.530;2022-12-18T09:55:36;-3.90;23.60
10245;DHT22;5167;52.164;10.530;2022-12-18T09:58:22;-3.70;22.10
10245;DHT22;5167;52.164;10.530;2022-12-18T10:00:52;-3.70;21.10
10245;DHT22;5167;52.164;10.530;2022-12-18T10:03:17;-3.70;20.70
10245;DHT22;5167;52.164;10.530;2022-12-18T10:13:46;-3.60;22.10
10245;DHT22;5167;52.164;10.530;2022-12-18T10:16:22;-3.70;22.30
10245;DHT22;5167;52.164;10.530;2022-12-18T10:22:37;-3.60;22.90
10245;DHT22;5167;52.164;10.530;2022-12-18T10:27:43;-3.50;23.40
10245;DHT22;5167;52.164;10.530;2022-12-18T10:30:13;-3.60;23.60
10245;DHT22;5167;52.164;10.530;2022-12-18T10:32:40;-3.50;23.50
10245;DHT22;5167;52.164;10.530;2022-12-18T10:35:17;-3.50;23.20
10245;DHT22;5167;52.164;10.530;2022-12-18T10:38:29;-3.50;23.20
10245;DHT22;5167;52.164;10.530;2022-12-18T10:41:02;-3.50;24.00
10245;DHT22;5167;52.164;10.530;2022-12-18T10:43:32;-3.50;24.00
10245;DHT22;5167;52.164;10.530;2022-12-18T10:51:35;-3.30;25.50
10245;DHT22;5167;52.164;10.530;2022-12-18T10:54:06;-3.20;25.50
10245;DHT22;5167;52.164;10.530;2022-12-18T10:56:38;-3.20;26.10
10245;DHT22;5167;52.164;10.530;2022-12-18T10:59:11;-3.20;25.40
10245;DHT22;5167;52.164;10.530;2022-12-18T11:01:49;-3.10;25.60
10245;DHT22;5167;52.164;10.530;2022-12-18T11:04:32;-3.00;26.20
10245;DHT22;5167;52.164;10.530;2022-12-18T11:07:01;-2.90;26.10
10245;DHT22;5167;52.164;10.530;2022-12-18T11:11:57;-2.80;25.80
10245;DHT22;5167;52.164;10.530;2022-12-18T11:14:29;-2.60;26.00
10245;DHT22;5167;52.164;10.530;2022-12-18T11:16:57;-2.70;26.10
10245;DHT22;5167;52.164;10.530;2022-12-18T11:19:33;-2.60;26.30
10245;DHT22;5167;52.164;10.530;2022-12-18T11:22:01;-2.60;26.80
10245;DHT22;5167;52.164;10.530;2022-12-18T11:24:34;-2.50;26.70
10245;DHT22;5167;52.164;10.530;2022-12-18T11:27:03;-2.50;27.70
10245;DHT22;5167;52.164;10.530;2022-12-18T11:29:35;-2.40;27.80
10245;DHT22;5167;52.164;10.530;2022-12-18T11:34:58;-2.30;27.90
10245;DHT22;5167;52.164;10.530;2022-12-18T11:37:24;-2.20;27.80
10245;DHT22;5167;52.164;10.530;2022-12-18T11:40:00;-2.10;28.50
10245;DHT22;5167;52.164;10.530;2022-12-18T11:42:38;-1.90;27.80
10245;DHT22;5167;52.164;10.530;2022-12-18T11:45:17;-2.00;27.00
10245;DHT22;5167;52.164;10.530;2022-12-18T11:50:26;-2.00;27.40
10245;DHT22;5167;52.164;10.530;2022-12-18T11:52:53;-2.00;27.10
10245;DHT22;5167;52.164;10.530;2022-12-18T11:55:56;-2.00;27.50
10245;DHT22;5167;52.164;10.530;2022-12-18T11:59:06;-1.90;28.10
10245;DHT22;5167;52.164;10.530;2022-12-18T12:01:48;-1.80;28.50
10245;DHT22;5167;52.164;10.530;2022-12-18T12:07:04;-1.70;28.70
10245;DHT22;5167;52.164;10.530;2022-12-18T12:09:42;-1.60;28.40
10245;DHT22;5167;52.164;10.530;2022-12-18T12:17:54;-1.30;30.50
10245;DHT22;5167;52.164;10.530;2022-12-18T12:26:07;-1.20;30.80
10245;DHT22;5167;52.164;10.530;2022-12-18T12:28:55;-1.10;30.60
10245;DHT22;5167;52.164;10.530;2022-12-18T12:31:46;-1.10;30.60
10245;DHT22;5167;52.164;10.530;2022-12-18T12:34:47;-1.10;30.40
10245;DHT22;5167;52.164;10.530;2022-12-18T12:40:01;-1.10;30.40
10245;DHT22;5167;52.164;10.530;2022-12-18T12:42:39;-1.00;30.00
10245;DHT22;5167;52.164;10.530;2022-12-18T12:45:34;-1.00;30.70
10245;DHT22;5167;52.164;10.530;2022-12-18T12:48:02;-1.00;29.90
10245;DHT22;5167;52.164;10.530;2022-12-18T12:50:30;-1.00;30.70
10245;DHT22;5167;52.164;10.530;2022-12-18T12:53:00;-0.90;30.90
10245;DHT22;5167;52.164;10.530;2022-12-18T12:55:28;-0.90;30.80
10245;DHT22;5167;52.164;10.530;2022-12-18T13:01:17;-0.90;30.90
10245;DHT22;5167;52.164;10.530;2022-12-18T13:06:49;-0.90;31.50
10245;DHT22;5167;52.164;10.530;2022-12-18T13:09:15;-0.90;31.80
10245;DHT22;5167;52.164;10.530;2022-12-18T13:11:43;-1.00;31.30
10245;DHT22;5167;52.164;10.530;2022-12-18T13:14:39;-1.00;31.40
10245;DHT22;5167;52.164;10.530;2022-12-18T13:19:51;-0.90;31.70
10245;DHT22;5167;52.164;10.530;2022-12-18T13:22:45;-0.90;31.90
10245;DHT22;5167;52.164;10.530;2022-12-18T13:25:35;-0.80;30.30
10245;DHT22;5167;52.164;10.530;2022-12-18T13:28:05;-0.70;30.10
10245;DHT22;5167;52.164;10.530;2022-12-18T13:38:33;-0.60;28.40
10245;DHT22;5167;52.164;10.530;2022-12-18T13:41:02;-0.70;28.70
10245;DHT22;5167;52.164;10.530;2022-12-18T13:43:32;-0.60;28.00
10245;DHT22;5167;52.164;10.530;2022-12-18T13:46:06;-0.70;27.80
10245;DHT22;5167;52.164;10.530;2022-12-18T13:48:50;-0.80;27.40
10245;DHT22;5167;52.164;10.530;2022-12-18T13:51:17;-0.90;27.10
10245;DHT22;5167;52.164;10.530;2022-12-18T13:53:49;-0.90;27.00
10245;DHT22;5167;52.164;10.530;2022-12-18T13:56:24;-0.90;27.50
10245;DHT22;5167;52.164;10.530;2022-12-18T13:59:19;-0.90;27.20
10245;DHT22;5167;52.164;10.530;2022-12-18T14:01:46;-0.90;27.10
10245;DHT22;5167;52.164;10.530;2022-12-18T14:04:33;-1.00;26.80
10245;DHT22;5167;52.164;10.530;2022-12-18T14:07:06;-0.90;26.70
10245;DHT22;5167;52.164;10.530;2022-12-18T14:09:39;-0.90;26.70
10245;DHT22;5167;52.164;10.530;2022-12-18T14:12:06;-1.00;26.10
10245;DHT22;5167;52.164;10.530;2022-12-18T14:14:52;-1.00;26.10
10245;DHT22;5167;52.164;10.530;2022-12-18T14:17:18;-1.00;26.00
10245;DHT22;5167;52.164;10.530;2022-12-18T14:19:49;-1.00;25.50
10245;DHT22;5167;52.164;10.530;2022-12-18T14:22:18;-1.10;25.20
10245;DHT22;5167;52.164;10.530;2022-12-18T14:24:45;-1.30;24.90
10245;DHT22;5167;52.164;10.530;2022-12-18T14:27:22;-1.40;25.60
10245;DHT22;5167;52.164;10.530;2022-12-18T14:29:49;-1.50;26.10
10245;DHT22;5167;52.164;10.530;2022-12-18T14:32:17;-1.40;26.20
10245;DHT22;5167;52.164;10.530;2022-12-18T14:34:53;-1.40;26.10
10245;DHT22;5167;52.164;10.530;2022-12-18T14:37:24;-1.40;26.20
10245;DHT22;5167;52.164;10.530;2022-12-18T14:39:58;-1.40;26.40
10245;DHT22;5167;52.164;10.530;2022-12-18T14:42:25;-1.40;25.50
10245;DHT22;5167;52.164;10.530;2022-12-18T14:47:58;-1.40;25.80
10245;DHT22;5167;52.164;10.530;2022-12-18T14:50:24;-1.30;25.80
10245;DHT22;5167;52.164;10.530;2022-12-18T14:52:50;-1.40;25.00
10245;DHT22;5167;52.164;10.530;2022-12-18T14:55:17;-1.40;25.60
10245;DHT22;5167;52.164;10.530;2022-12-18T14:57:43;-1.40;25.10
10245;DHT22;5167;52.164;10.530;2022-12-18T15:00:18;-1.40;25.10
10245;DHT22;5167;52.164;10.530;2022-12-18T15:02:46;-1.40;25.60
10245;DHT22;5167;52.164;10.530;2022-12-18T15:07:44;-1.60;25.00
10245;DHT22;5167;52.164;10.530;2022-12-18T15:10:16;-1.60;25.30
10245;DHT22;5167;52.164;10.530;2022-12-18T15:12:44;-1.80;25.40
10245;DHT22;5167;52.164;10.530;2022-12-18T15:15:46;-1.80;25.60
10245;DHT22;5167;52.164;10.530;2022-12-18T15:18:15;-1.90;25.60
10245;DHT22;5167;52.164;10.530;2022-12-18T15:20:52;-1.90;25.40
10245;DHT22;5167;52.164;10.530;2022-12-18T15:26:09;-2.10;25.70
10245;DHT22;5167;52.164;10.530;2022-12-18T15:28:50;-2.00;25.20
10245;DHT22;5167;52.164;10.530;2022-12-18T15:33:43;-2.00;24.40
10245;DHT22;5167;52.164;10.530;2022-12-18T15:36:13;-2.00;24.70
10245;DHT22;5167;52.164;10.530;2022-12-18T15:38:39;-2.00;24.30
10245;DHT22;5167;52.164;10.530;2022-12-18T15:41:05;-1.90;23.90
10245;DHT22;5167;52.164;10.530;2022-12-18T15:43:31;-1.90;24.20
10245;DHT22;5167;52.164;10.530;2022-12-18T15:46:11;-1.80;23.50
10245;DHT22;5167;52.164;10.530;2022-12-18T15:48:41;-1.80;23.20
10245;DHT22;5167;52.164;10.530;2022-12-18T15:51:18;-1.80;22.50
10245;DHT22;5167;52.164;10.530;2022-12-18T15:53:44;-1.80;22.30
10245;DHT22;5167;52.164;10.530;2022-12-18T15:56:14;-1.90;21.80
10245;DHT22;5167;52.164;10.530;2022-12-18T15:59:00;-1.90;22.70
10245;DHT22;5167;52.164;10.530;2022-12-18T16:01:27;-1.90;22.60
10245;DHT22;5167;52.164;10.530;2022-12-18T16:03:53;-1.80;22.40
10245;DHT22;5167;52.164;10.530;2022-12-18T16:06:20;-1.80;22.50
10245;DHT22;5167;52.164;10.530;2022-12-18T16:08:45;-1.60;21.40
10245;DHT22;5167;52.164;10.530;2022-12-18T16:11:25;-1.70;21.00
10245;DHT22;5167;52.164;10.530;2022-12-18T16:14:28;-1.70;20.80
10245;DHT22;5167;52.164;10.530;2022-12-18T16:16:56;-1.70;20.30
10245;DHT22;5167;52.164;10.530;2022-12-18T16:19:22;-1.60;20.40
10245;DHT22;5167;52.164;10.530;2022-12-18T16:21:49;-1.70;20.10
10245;DHT22;5167;52.164;10.530;2022-12-18T16:24:18;-1.80;20.00
10245;DHT22;5167;52.164;10.530;2022-12-18T16:26:44;-1.70;20.10
10245;DHT22;5167;52.164;10.530;2022-12-18T16:29:10;-1.90;20.10
10245;DHT22;5167;52.164;10.530;2022-12-18T16:31:37;-1.90;20.20
10245;DHT22;5167;52.164;10.530;2022-12-18T16:34:22;-2.00;20.50
10245;DHT22;5167;52.164;10.530;2022-12-18T16:36:53;-2.10;20.50
10245;DHT22;5167;52.164;10.530;2022-12-18T16:39:20;-2.10;20.50
10245;DHT22;5167;52.164;10.530;2022-12-18T16:41:46;-2.10;20.60
10245;DHT22;5167;52.164;10.530;2022-12-18T16:44:11;-2.10;20.50
10245;DHT22;5167;52.164;10.530;2022-12-18T16:46:38;-2.00;21.70
10245;DHT22;5167;52.164;10.530;2022-12-18T16:49:04;-2.10;21.80
10245;DHT22;5167;52.164;10.530;2022-12-18T16:51:33;-2.00;21.90
10245;DHT22;5167;52.164;10.530;2022-12-18T16:53:59;-2.00;21.50
10245;DHT22;5167;52.164;10.530;2022-12-18T16:56:24;-2.10;21.60
10245;DHT22;5167;52.164;10.530;2022-12-18T16:58:51;-2.10;21.70
10245;DHT22;5167;52.164;10.530;2022-12-18T17:01:17;-2.10;21.80
10245;DHT22;5167;52.164;10.530;2022-12-18T17:03:42;-2.10;22.10
10245;DHT22;5167;52.164;10.530;2022-12-18T17:06:08;-2.10;22.30
10245;DHT22;5167;52.164;10.530;2022-12-18T17:08:33;-2.00;22.20
10245;DHT22;5167;52.164;10.530;2022-12-18T17:11:06;-2.00;22.10
10245;DHT22;5167;52.164;10.530;2022-12-18T17:13:32;-2.00;21.80
10245;DHT22;5167;52.164;10.530;2022-12-18T17:16:07;-2.00;22.10
10245;DHT22;5167;52.164;10.530;2022-12-18T17:18:33;-2.00;22.50
10245;DHT22;5167;52.164;10.530;2022-12-18T17:21:00;-2.00;22.50
10245;DHT22;5167;52.164;10.530;2022-12-18T17:23:26;-2.00;22.40
10245;DHT22;5167;52.164;10.530;2022-12-18T17:25:56;-2.00;22.50
10245;DHT22;5167;52.164;10.530;2022-12-18T17:28:26;-2.00;22.60
10245;DHT22;5167;52.164;10.530;2022-12-18T17:30:53;-2.10;23.00